Map

Track Data

SID SEASON NUMBER BASIN SUBBASIN NAME ISO_TIME NATURE LAT LON WMO_WIND WMO_PRES WMO_AGENCY TRACK_TYPE DIST2LAND LANDFALL IFLAG USA_AGENCY USA_ATCF_ID USA_LAT USA_LON USA_RECORD USA_STATUS USA_WIND USA_PRES USA_SSHS USA_R34_NE USA_R34_SE USA_R34_SW USA_R34_NW USA_R50_NE USA_R50_SE USA_R50_SW USA_R50_NW USA_R64_NE USA_R64_SE USA_R64_SW USA_R64_NW USA_POCI USA_ROCI USA_RMW USA_EYE TOKYO_LAT TOKYO_LON TOKYO_GRADE TOKYO_WIND TOKYO_PRES TOKYO_R50_DIR TOKYO_R50_LONG TOKYO_R50_SHORT TOKYO_R30_DIR TOKYO_R30_LONG TOKYO_R30_SHORT TOKYO_LAND CMA_LAT CMA_LON CMA_CAT CMA_WIND CMA_PRES HKO_LAT HKO_LON HKO_CAT HKO_WIND HKO_PRES NEWDELHI_LAT NEWDELHI_LON NEWDELHI_GRADE NEWDELHI_WIND NEWDELHI_PRES NEWDELHI_CI NEWDELHI_DP NEWDELHI_POCI REUNION_LAT REUNION_LON REUNION_TYPE REUNION_WIND REUNION_PRES REUNION_TNUM REUNION_CI REUNION_RMW REUNION_R34_NE REUNION_R34_SE REUNION_R34_SW REUNION_R34_NW REUNION_R50_NE REUNION_R50_SE REUNION_R50_SW REUNION_R50_NW REUNION_R64_NE REUNION_R64_SE REUNION_R64_SW REUNION_R64_NW BOM_LAT BOM_LON BOM_TYPE BOM_WIND BOM_PRES BOM_TNUM BOM_CI BOM_RMW BOM_R34_NE BOM_R34_SE BOM_R34_SW BOM_R34_NW BOM_R50_NE BOM_R50_SE BOM_R50_SW BOM_R50_NW BOM_R64_NE BOM_R64_SE BOM_R64_SW BOM_R64_NW BOM_ROCI BOM_POCI BOM_EYE BOM_POS_METHOD BOM_PRES_METHOD NADI_LAT NADI_LON NADI_CAT NADI_WIND NADI_PRES WELLINGTON_LAT WELLINGTON_LON WELLINGTON_WIND WELLINGTON_PRES DS824_LAT DS824_LON DS824_STAGE DS824_WIND DS824_PRES TD9636_LAT TD9636_LON TD9636_STAGE TD9636_WIND TD9636_PRES TD9635_LAT TD9635_LON TD9635_WIND TD9635_PRES TD9635_ROCI NEUMANN_LAT NEUMANN_LON NEUMANN_CLASS NEUMANN_WIND NEUMANN_PRES MLC_LAT MLC_LON MLC_CLASS MLC_WIND MLC_PRES USA_GUST BOM_GUST BOM_GUST_PER REUNION_GUST REUNION_GUST_PER USA_SEAHGT USA_SEARAD_NE USA_SEARAD_SE USA_SEARAD_SW USA_SEARAD_NW STORM_SPEED STORM_DIR
1945016S13043 1945 4 SI MM NOT_NAMED 1945-01-15 12:00:00 TS -12.7000 43.2000 main 282 282 O________OO___ jtwc_sh SH021945 -12.7000 43.2000 -1 -12.7000 43.2000 TC -12.7000 43.2000 1 2 0
1945016S13043 1945 4 SI MM NOT_NAMED 1945-01-15 15:00:00 TS -12.7985 43.1950 main 282 282 P________PP___ SH021945 -12.7900 43.1925 -1 -12.7900 43.1925 TC -12.8156 43.2000 1 2 173
1945016S13043 1945 4 SI MM NOT_NAMED 1945-01-15 18:00:00 TS -12.9117 43.2034 main 282 282 O________OP___ jtwc_sh SH021945 -12.9000 43.2000 -1 -12.9000 43.2000 TC -12.9350 43.2101 1 3 171
1945016S13043 1945 4 SI MM NOT_NAMED 1945-01-15 21:00:00 TS -13.0489 43.2367 main 282 282 P________PP___ SH021945 -13.0425 43.2350 -1 -13.0425 43.2350 TC -13.0618 43.2400 1 3 162
1945016S13043 1945 4 SI MM NOT_NAMED 1945-01-16 00:00:00 TS -13.2000 43.3000 main 293 292 O________OO___ jtwc_sh SH021945 -13.2000 43.3000 -1 -13.2000 43.3000 TC -13.2000 43.3000 1 3 154
1945016S13043 1945 4 SI MM NOT_NAMED 1945-01-16 03:00:00 TS -13.3458 43.3888 main 303 303 P________PP___ SH021945 -13.3425 43.3850 -1 -13.3425 43.3850 TC -13.3525 43.3962 1 4 147
1945016S13043 1945 4 SI MM NOT_NAMED 1945-01-16 06:00:00 TS -13.5067 43.5067 main 312 303 O________OP___ jtwc_sh SH021945 -13.5000 43.5000 -1 -13.5000 43.5000 TC -13.5200 43.5200 1 4 144
1945016S13043 1945 4 SI MM NOT_NAMED 1945-01-16 09:00:00 TS -13.6959 43.6529 main 298 273 P________PP___ SH021945 -13.6925 43.6500 -1 -13.6925 43.6500 TC -13.7025 43.6588 1 5 144
1945016S13043 1945 4 SI MM NOT_NAMED 1945-01-16 12:00:00 TS -13.9000 43.8000 main 273 248 O________OO___ jtwc_sh SH021945 -13.9000 43.8000 -1 -13.9000 43.8000 TC -13.9000 43.8000 1 5 149
1945016S13043 1945 4 SI MM NOT_NAMED 1945-01-16 15:00:00 TS -14.0863 43.8964 main 248 223 P________PP___ SH021945 -14.0925 43.9001 -1 -14.0925 43.9001 TC -14.0739 43.8891 1 4 154
1945016S13043 1945 4 SI MM NOT_NAMED 1945-01-16 18:00:00 TS -14.2891 43.9945 main 223 199 O________OP___ jtwc_sh SH021945 -14.3000 44.0000 -1 -14.3000 44.0000 TC -14.2672 43.9836 1 5 153
1945016S13043 1945 4 SI MM NOT_NAMED 1945-01-16 21:00:00 TS -14.5089 44.1172 main 199 159 P________PP___ SH021945 -14.5124 44.1202 -1 -14.5124 44.1202 TC -14.5019 44.1112 1 6 150
1945016S13043 1945 4 SI MM NOT_NAMED 1945-01-17 00:00:00 TS -14.8000 44.3000 main 159 104 O________OO___ jtwc_sh SH021945 -14.8000 44.3000 -1 -14.8000 44.3000 TC -14.8000 44.3000 1 8 148
1945016S13043 1945 4 SI MM NOT_NAMED 1945-01-17 03:00:00 TS -15.2112 44.5726 main 104 39 P________PP___ SH021945 -15.2200 44.5625 -1 -15.2200 44.5625 TC -15.1937 44.5928 1 11 146
1945016S13043 1945 4 SI MM NOT_NAMED 1945-01-17 06:00:00 TS -15.6827 44.9155 main 39 0 O________OP___ jtwc_sh SH021945 -15.7000 44.9000 -1 -15.7000 44.9000 TC -15.6480 44.9466 1 12 143
1945016S13043 1945 4 SI MM NOT_NAMED 1945-01-17 09:00:00 TS -16.1478 45.3190 main 0 0 P________PP___ SH021945 -16.1576 45.3148 -1 -16.1576 45.3148 TC -16.1281 45.3273 1 12 141
1945016S13043 1945 4 SI MM NOT_NAMED 1945-01-17 12:00:00 TS -16.6000 45.7000 main 0 0 O________OO___ jtwc_sh SH021945 -16.6000 45.7000 -1 -16.6000 45.7000 TC -16.6000 45.7000 1 10 146
1945016S13043 1945 4 SI MM NOT_NAMED 1945-01-17 15:00:00 TS -16.9915 45.9086 main 0 0 P________PP___ SH021945 -17.0072 45.9005 -1 -17.0072 45.9005 TC -16.9599 45.9247 1 9 153
1945016S13043 1945 4 SI MM NOT_NAMED 1945-01-17 18:00:00 TS -17.3716 46.1162 main 0 0 O________OP___ jtwc_sh SH021945 -17.4000 46.1000 -1 -17.4000 46.1000 TC -17.3148 46.1486 1 9 147
1945016S13043 1945 4 SI MM NOT_NAMED 1945-01-17 21:00:00 TS -17.7405 46.4233 main 0 0 P________PP___ SH021945 -17.7546 46.4110 -1 -17.7546 46.4110 TC -17.7123 46.4479 1 11 138
1945016S13043 1945 4 SI MM NOT_NAMED 1945-01-18 00:00:00 TS -18.2000 46.9000 main 0 0 O________OO___ jtwc_sh SH021945 -18.2000 46.9000 -1 -18.2000 46.9000 TC -18.2000 46.9000 1 16 135
1945016S13043 1945 4 SI MM NOT_NAMED 1945-01-18 03:00:00 TS -18.8549 47.6125 main 0 0 P________PP___ SH021945 -18.8475 47.6176 -1 -18.8475 47.6176 TC -18.8696 47.6023 1 21 133
1945016S13043 1945 4 SI MM NOT_NAMED 1945-01-18 06:00:00 TS -19.6074 48.4885 main 0 0 O________OP___ jtwc_sh SH021945 -19.6000 48.5000 -1 -19.6000 48.5000 TC -19.6221 48.4655 1 23 132
1945016S13043 1945 4 SI MM NOT_NAMED 1945-01-18 09:00:00 TS -20.3777 49.4304 main 76 76 P________PP___ SH021945 -20.3724 49.4348 -1 -20.3724 49.4348 TC -20.3882 49.4216 1 23 130
1945016S13043 1945 4 SI MM NOT_NAMED 1945-01-18 12:00:00 TS -21.1000 50.4000 main 202 202 O________OO___ jtwc_sh SH021945 -21.1000 50.4000 -1 -21.1000 50.4000 TC -21.1000 50.4000 1 22 127
1945016S13043 1945 4 SI MM NOT_NAMED 1945-01-18 15:00:00 TS -21.6986 51.3197 main 310 310 P________PP___ SH021945 -21.6944 51.3085 -1 -21.6944 51.3085 TC -21.7072 51.3423 1 20 123
1945016S13043 1945 4 SI MM NOT_NAMED 1945-01-18 18:00:00 TS -22.2079 52.2157 main 333 269 O________OP___ jtwc_sh SH021945 -22.2000 52.2000 -1 -22.2000 52.2000 TC -22.2236 52.2471 1 19 120
1945016S13043 1945 4 SI MM NOT_NAMED 1945-01-18 21:00:00 TS -22.6668 53.1069 main 275 238 P________PP___ SH021945 -22.6611 53.0962 -1 -22.6611 53.0962 TC -22.6783 53.1283 1 19 118
1945016S13043 1945 4 SI MM NOT_NAMED 1945-01-19 00:00:00 TS -23.1000 54.0000 main 241 O________OO___ jtwc_sh SH021945 -23.1000 54.0000 -1 -23.1000 54.0000 TC -23.1000 54.0000 1 19 118

About IBTrACS Database

This database is a web-friendly format of International Best Track Archive for Climate Stewardship (IBTrACS), a global best track data archive curated by NOAA dating back to 1842.

Updated: 2021-12-08